Time;durP1;ratioP1;P1;durP2;ratioP2;P2;SDS_P1;SDS_P2;PMS_P1;PMS_P2;Temp;Humidity;BMP_temperature;BMP_pressure;BME280_temperature;BME280_humidity;BME280_pressure;Samples;Min_cycle;Max_cycle;Signal;HPM_P1;HPM_P2
2021/08/28 00:00:50;;;;;;;43.05;30.45;;;16.50;99.90;;;;;;5096086;28;20024;-77
2021/08/28 00:03:17;;;;;;;42.55;27.75;;;16.50;99.90;;;;;;5095390;28;20020;-77
2021/08/28 00:05:42;;;;;;;36.13;25.48;;;16.50;99.90;;;;;;5095788;28;20016;-77
2021/08/28 00:08:08;;;;;;;37.53;23.67;;;16.50;99.90;;;;;;5095366;28;20031;-77
2021/08/28 00:10:34;;;;;;;38.17;25.40;;;16.50;99.90;;;;;;5095446;28;20024;-77
2021/08/28 00:12:59;;;;;;;38.17;24.10;;;16.50;99.90;;;;;;5095944;28;20020;-77
2021/08/28 00:15:25;;;;;;;38.17;24.63;;;16.50;99.90;;;;;;5095559;28;20455;-77
2021/08/28 00:17:50;;;;;;;40.95;26.08;;;16.50;99.90;;;;;;5095266;28;20458;-77
2021/08/28 00:20:16;;;;;;;34.58;24.67;;;16.50;99.90;;;;;;5094078;28;20051;-77
2021/08/28 00:22:42;;;;;;;35.05;23.65;;;16.50;99.90;;;;;;5095512;28;20482;-77
2021/08/28 00:25:09;;;;;;;34.60;23.88;;;16.50;99.90;;;;;;5095654;28;20016;-77
2021/08/28 00:27:35;;;;;;;39.70;24.30;;;16.40;99.90;;;;;;5095329;28;20356;-77
2021/08/28 00:30:02;;;;;;;34.55;24.20;;;16.50;99.90;;;;;;5095267;28;20100;-77
2021/08/28 00:32:28;;;;;;;32.97;21.83;;;16.50;99.90;;;;;;5094258;28;20051;-77
2021/08/28 00:34:54;;;;;;;33.22;23.40;;;16.50;99.90;;;;;;5095120;28;20028;-77
2021/08/28 00:37:20;;;;;;;35.00;23.08;;;16.40;99.90;;;;;;5094001;28;20081;-77
2021/08/28 00:39:46;;;;;;;32.50;22.58;;;16.40;99.90;;;;;;5095113;28;20347;-77
2021/08/28 00:42:11;;;;;;;32.40;22.58;;;16.40;99.90;;;;;;5094505;28;20122;-77
2021/08/28 00:44:40;;;;;;;34.70;23.00;;;16.40;99.90;;;;;;5094949;28;20047;-77
2021/08/28 00:47:06;;;;;;;31.60;22.73;;;16.40;99.90;;;;;;5094746;28;20023;-77
2021/08/28 00:49:31;;;;;;;34.75;23.63;;;16.40;99.90;;;;;;5094988;28;20448;-77
2021/08/28 00:51:58;;;;;;;35.75;23.65;;;16.40;99.90;;;;;;5094343;28;20463;-77
2021/08/28 00:54:24;;;;;;;35.30;22.33;;;16.30;99.90;;;;;;5094762;28;20024;-77
2021/08/28 00:56:49;;;;;;;35.15;23.27;;;16.30;99.90;;;;;;5094568;28;20172;-77
2021/08/28 00:59:15;;;;;;;36.00;22.92;;;16.30;99.90;;;;;;5094832;28;20039;-77
2021/08/28 01:01:43;;;;;;;33.20;22.98;;;16.30;99.90;;;;;;5094502;28;20385;-76
2021/08/28 01:04:14;;;;;;;37.42;24.92;;;16.30;99.90;;;;;;5094890;28;20020;-77
2021/08/28 01:07:13;;;;;;;36.17;24.02;;;16.30;99.90;;;;;;5094710;28;20016;-77
2021/08/28 01:09:46;;;;;;;33.83;23.00;;;16.30;99.90;;;;;;5083588;28;20028;-77
2021/08/28 01:12:35;;;;;;;36.80;23.10;;;16.30;99.90;;;;;;5093384;28;20028;-77
2021/08/28 01:15:09;;;;;;;33.83;24.13;;;16.20;99.90;;;;;;5094461;28;20032;-77
2021/08/28 01:17:39;;;;;;;35.10;23.90;;;16.20;99.90;;;;;;5094658;28;20056;-77
2021/08/28 01:20:18;;;;;;;;;;;16.20;99.90;;;;;;5095052;28;20024;-77
2021/08/28 01:22:45;;;;;;;34.42;24.90;;;16.10;99.90;;;;;;5094239;28;19908;-77
2021/08/28 01:25:12;;;;;;;35.05;24.98;;;16.20;99.90;;;;;;5094569;28;20486;-77
2021/08/28 01:27:56;;;;;;;31.80;22.40;;;16.20;99.90;;;;;;5094418;28;20024;-77
2021/08/28 01:30:22;;;;;;;34.97;24.65;;;16.20;99.90;;;;;;5092731;28;20012;-77
2021/08/28 01:32:50;;;;;;;36.75;23.77;;;16.10;99.90;;;;;;5094085;28;20593;-77
2021/08/28 01:35:16;;;;;;;33.90;24.75;;;16.20;99.90;;;;;;5093987;28;20096;-77
2021/08/28 01:37:43;;;;;;;35.20;24.13;;;16.20;99.90;;;;;;5094171;28;20458;-77
2021/08/28 01:40:11;;;;;;;32.13;23.23;;;16.20;99.90;;;;;;5093143;28;20462;-79
2021/08/28 01:42:38;;;;;;;33.50;24.13;;;16.10;99.90;;;;;;5093588;28;20055;-77
2021/08/28 01:45:07;;;;;;;31.55;23.40;;;16.10;99.90;;;;;;5094207;28;20081;-77
2021/08/28 01:47:33;;;;;;;32.65;22.80;;;16.10;99.90;;;;;;5094179;28;20028;-77
2021/08/28 01:50:00;;;;;;;32.33;23.40;;;16.10;99.90;;;;;;5094199;28;20012;-77
2021/08/28 01:52:25;;;;;;;30.77;22.20;;;16.10;99.90;;;;;;5094017;28;20024;-77
2021/08/28 01:54:53;;;;;;;33.95;24.17;;;16.10;99.90;;;;;;5094105;28;20081;-77
2021/08/28 01:57:19;;;;;;;32.40;23.10;;;16.10;99.90;;;;;;5093916;28;20020;-77
2021/08/28 01:59:45;;;;;;;29.67;22.83;;;16.10;99.90;;;;;;5094115;28;20031;-77
2021/08/28 02:02:11;;;;;;;32.88;22.83;;;16.10;99.90;;;;;;5093744;28;20032;-77
2021/08/28 02:04:38;;;;;;;33.65;22.10;;;16.10;99.90;;;;;;5096528;28;20366;-76
2021/08/28 02:07:13;;;;;;;29.98;21.15;;;16.20;99.90;;;;;;5096662;28;20031;-77
2021/08/28 02:09:52;;;;;;;28.23;21.08;;;16.20;99.90;;;;;;5097586;28;20042;-77
2021/08/28 02:12:23;;;;;;;31.42;22.52;;;16.30;99.90;;;;;;5097738;28;20026;-77
2021/08/28 02:15:08;;;;;;;33.42;22.73;;;16.40;99.90;;;;;;5097618;28;20446;-77
2021/08/28 02:17:40;;;;;;;32.08;22.00;;;16.50;99.90;;;;;;5076156;28;20033;-77
2021/08/28 02:20:07;;;;;;;32.78;21.35;;;16.60;99.90;;;;;;5077567;28;20555;-77
2021/08/28 02:22:39;;;;;;;38.60;23.83;;;16.70;99.90;;;;;;5077084;28;20475;-77
2021/08/28 02:25:49;;;;;;;33.00;23.02;;;16.80;99.90;;;;;;5077467;28;20043;-77
2021/08/28 02:28:21;;;;;;;32.70;22.10;;;16.90;99.90;;;;;;5083747;28;20455;-77
2021/08/28 02:30:47;;;;;;;31.77;23.30;;;16.90;99.90;;;;;;5097622;28;20343;-77
2021/08/28 02:33:14;;;;;;;30.42;21.48;;;16.90;99.90;;;;;;5097604;28;20035;-77
2021/08/28 02:35:40;;;;;;;30.23;22.00;;;16.90;99.90;;;;;;5097814;28;20020;-77
2021/08/28 02:38:08;;;;;;;32.35;22.27;;;16.80;99.90;;;;;;5097480;28;20716;-77
2021/08/28 02:40:35;;;;;;;28.67;21.60;;;16.80;99.90;;;;;;5097181;28;20106;-77
2021/08/28 02:43:02;;;;;;;28.52;19.88;;;16.70;99.90;;;;;;5097202;28;20059;-77
2021/08/28 02:45:28;;;;;;;26.70;19.88;;;16.70;99.90;;;;;;5096707;28;20035;-78
2021/08/28 16:55:38;;;;;;;25.95;19.27;;;21.80;91.50;;;;;;5071560;28;20384;-77
2021/08/28 16:58:03;;;;;;;26.33;16.48;;;21.20;93.10;;;;;;5070920;28;20118;-75
2021/08/28 17:00:29;;;;;;;22.55;17.73;;;21.10;94.50;;;;;;5070907;28;20406;-78
2021/08/28 17:02:55;;;;;;;12.50;10.43;;;21.10;95.20;;;;;;5070974;28;20052;-76
2021/08/28 17:05:20;;;;;;;11.13;8.82;;;21.10;95.30;;;;;;5070824;28;20037;-76
2021/08/28 17:07:46;;;;;;;9.80;6.60;;;21.10;95.90;;;;;;5071059;28;20027;-76
2021/08/28 17:10:12;;;;;;;8.88;5.70;;;21.10;96.20;;;;;;5070701;28;20021;-75
2021/08/28 17:12:38;;;;;;;6.82;5.20;;;21.20;96.00;;;;;;5071066;28;20127;-76
2021/08/28 17:15:04;;;;;;;7.40;5.47;;;21.20;95.90;;;;;;5069008;28;20417;-76
2021/08/28 17:17:30;;;;;;;6.63;5.72;;;21.20;96.10;;;;;;5070587;28;20451;-76
2021/08/28 17:19:55;;;;;;;7.05;5.47;;;21.30;96.50;;;;;;5070437;28;20025;-76
2021/08/28 17:22:21;;;;;;;6.65;5.20;;;21.30;96.70;;;;;;5070016;28;20025;-76
2021/08/28 17:24:48;;;;;;;11.82;8.35;;;21.30;96.90;;;;;;5070199;28;20523;-75
2021/08/28 17:27:13;;;;;;;16.15;11.27;;;21.30;97.20;;;;;;5070634;28;20032;-76
2021/08/28 17:29:39;;;;;;;12.93;9.98;;;21.20;97.30;;;;;;5070276;28;20474;-76
2021/08/28 17:32:05;;;;;;;8.85;7.57;;;21.20;97.20;;;;;;5070134;28;20100;-76
2021/08/28 17:34:31;;;;;;;9.57;6.75;;;21.20;97.30;;;;;;5070652;28;20021;-77
2021/08/28 17:36:56;;;;;;;8.07;5.80;;;21.10;97.30;;;;;;5070542;28;20028;-77
2021/08/28 17:39:22;;;;;;;7.50;6.07;;;21.10;97.40;;;;;;5069967;28;20016;-77
2021/08/28 17:41:48;;;;;;;5.80;5.22;;;21.10;97.50;;;;;;5070743;28;20021;-77
2021/08/28 17:44:15;;;;;;;7.03;5.80;;;21.10;97.60;;;;;;5069839;28;20025;-77
2021/08/28 17:46:41;;;;;;;9.90;5.53;;;21.00;97.60;;;;;;5069996;28;20090;-75
2021/08/28 17:49:07;;;;;;;9.70;6.80;;;21.00;97.70;;;;;;5069822;28;20466;-76
2021/08/28 18:02:36;;;;;;;39.35;21.27;;;20.70;95.90;;;;;;5090444;28;20798;-75
2021/08/28 18:05:02;;;;;;;35.50;18.80;;;20.60;96.30;;;;;;5090139;28;20024;-75
2021/08/28 18:07:28;;;;;;;26.65;15.20;;;20.50;96.90;;;;;;5090397;28;20047;-75
2021/08/28 18:09:54;;;;;;;19.25;11.25;;;20.50;97.40;;;;;;5090509;28;20048;-75
2021/08/28 18:12:19;;;;;;;17.25;10.18;;;20.40;97.70;;;;;;5090687;28;20486;-75
2021/08/28 18:14:45;;;;;;;19.05;10.65;;;20.50;97.90;;;;;;5090827;28;20031;-75
2021/08/28 18:17:11;;;;;;;13.35;8.32;;;20.40;98.00;;;;;;5090327;28;20032;-75
2021/08/28 18:59:45;;;;;;;18.08;13.02;;;19.50;96.30;;;;;;5111257;27;20373;-79
2021/08/28 19:02:11;;;;;;;13.82;10.70;;;19.90;99.90;;;;;;5126758;28;20073;-79
2021/08/28 19:04:36;;;;;;;14.10;9.27;;;19.80;99.90;;;;;;5111617;28;20088;-91
2021/08/28 19:07:02;;;;;;;18.77;13.77;;;19.80;99.90;;;;;;5127260;28;20042;-88
2021/08/28 19:09:28;;;;;;;20.67;14.35;;;19.80;99.90;;;;;;5126835;28;20363;-82
2021/08/28 19:11:55;;;;;;;19.00;10.88;;;19.80;99.90;;;;;;5110882;28;20396;-84
2021/08/28 19:14:21;;;;;;;13.63;9.48;;;19.80;99.90;;;;;;5092914;28;20073;-84
2021/08/28 19:16:47;;;;;;;70.40;51.10;;;19.80;99.90;;;;;;5111163;28;20024;-88
2021/08/28 19:19:13;;;;;;;105.97;86.38;;;19.80;99.90;;;;;;5110833;28;20024;-83
2021/08/28 19:21:39;;;;;;;41.10;31.88;;;19.80;99.90;;;;;;5092620;28;20072;-91
2021/08/28 19:24:05;;;;;;;22.42;15.93;;;19.80;99.90;;;;;;5092898;28;20027;-84
2021/08/28 19:26:31;;;;;;;17.13;11.68;;;19.80;99.90;;;;;;5110978;28;20020;-86
2021/08/28 19:28:57;;;;;;;26.92;20.45;;;19.80;99.90;;;;;;5110733;28;20059;-90
2021/08/28 19:31:23;;;;;;;20.30;14.68;;;19.70;99.90;;;;;;5092922;28;20409;-87
2021/08/28 19:33:49;;;;;;;20.25;14.73;;;19.80;99.90;;;;;;5092775;28;20458;-85
2021/08/28 19:36:16;;;;;;;18.17;12.48;;;19.80;99.90;;;;;;5110777;28;20099;-84
2021/08/28 19:38:43;;;;;;;28.70;20.90;;;19.80;99.90;;;;;;5092790;28;20027;-90
2021/08/28 19:41:09;;;;;;;23.55;15.43;;;19.80;99.90;;;;;;5092592;28;20038;-91
2021/08/28 19:43:37;;;;;;;18.52;12.98;;;19.70;99.90;;;;;;5092426;28;20027;-87
2021/08/28 19:46:04;;;;;;;21.65;15.75;;;19.70;99.90;;;;;;5110207;28;20497;-85
2021/08/28 19:48:30;;;;;;;23.05;19.27;;;19.70;99.90;;;;;;5110055;28;20034;-89
2021/08/28 19:50:56;;;;;;;16.02;13.40;;;19.70;99.90;;;;;;5091635;28;20028;-89
2021/08/28 19:53:24;;;;;;;16.75;12.02;;;19.70;99.90;;;;;;5125717;28;20024;-84
2021/08/28 19:55:50;;;;;;;12.38;8.63;;;19.70;99.90;;;;;;5091968;28;20024;-89
2021/08/28 19:58:15;;;;;;;12.40;8.50;;;19.70;99.90;;;;;;5091464;28;20505;-79
2021/08/28 20:00:41;;;;;;;11.13;7.85;;;19.70;99.90;;;;;;5096348;28;20031;-82
2021/08/28 20:03:07;;;;;;;19.90;17.77;;;19.70;99.90;;;;;;5096204;28;20098;-82
2021/08/28 20:05:32;;;;;;;13.70;10.25;;;19.70;99.90;;;;;;5077566;28;20028;-81
2021/08/28 20:07:58;;;;;;;8.95;7.20;;;19.70;99.90;;;;;;5095956;28;20056;-79
2021/08/28 20:10:24;;;;;;;8.10;7.03;;;19.70;99.90;;;;;;5111852;28;20024;-79
2021/08/28 20:12:49;;;;;;;11.52;8.75;;;19.80;99.90;;;;;;5095766;28;20078;-81
2021/08/28 20:15:15;;;;;;;14.68;11.38;;;19.80;99.90;;;;;;5077826;28;20043;-82
2021/08/28 20:17:41;;;;;;;16.10;9.27;;;19.80;99.90;;;;;;5095535;28;20028;-78
2021/08/28 20:20:08;;;;;;;8.98;6.65;;;19.90;99.90;;;;;;5095823;28;20032;-78
2021/08/28 20:22:33;;;;;;;5.88;5.25;;;19.90;99.90;;;;;;5077790;28;20361;-78
2021/08/28 20:24:59;;;;;;;6.28;5.35;;;19.90;99.90;;;;;;5111565;28;20028;-78
2021/08/28 20:27:25;;;;;;;7.30;5.40;;;20.00;99.90;;;;;;5095597;28;20028;-78
2021/08/28 20:29:50;;;;;;;5.70;4.90;;;20.00;99.90;;;;;;5095774;28;20047;-79
2021/08/28 20:32:16;;;;;;;5.00;4.53;;;20.10;99.90;;;;;;5095711;28;20028;-80
2021/08/28 20:34:42;;;;;;;5.65;4.72;;;20.20;99.90;;;;;;5095698;28;20012;-80
2021/08/28 20:37:09;;;;;;;5.63;4.22;;;20.30;99.90;;;;;;5095672;28;20028;-80
2021/08/28 20:39:34;;;;;;;6.72;4.30;;;20.40;99.90;;;;;;5095581;28;20042;-82
2021/08/28 20:42:00;;;;;;;5.00;4.22;;;20.50;99.90;;;;;;5095459;28;20518;-80
2021/08/28 20:44:26;;;;;;;4.25;3.85;;;20.60;99.10;;;;;;5095521;28;20032;-80
2021/08/28 20:46:51;;;;;;;5.03;4.20;;;20.70;98.80;;;;;;5095490;28;20095;-80
2021/08/28 20:49:17;;;;;;;5.85;3.78;;;20.80;98.50;;;;;;5095342;28;20020;-79
2021/08/28 20:51:43;;;;;;;4.60;4.20;;;20.70;98.40;;;;;;5111129;28;20024;-80
2021/08/28 20:54:08;;;;;;;4.55;3.92;;;20.80;98.10;;;;;;5095327;28;20027;-79
2021/08/28 20:56:34;;;;;;;6.40;3.85;;;20.80;97.70;;;;;;5111011;28;20074;-77
2021/08/28 20:59:00;;;;;;;5.25;3.70;;;20.80;97.40;;;;;;5077106;28;20058;-78
2021/08/28 21:01:25;;;;;;;4.30;3.90;;;20.80;97.20;;;;;;5095308;28;20059;-78
2021/08/28 21:03:51;;;;;;;5.13;3.95;;;20.80;96.60;;;;;;5095221;28;20028;-77
2021/08/28 21:06:17;;;;;;;3.85;3.55;;;20.80;96.30;;;;;;5095352;28;20040;-78
2021/08/28 21:08:42;;;;;;;5.07;3.40;;;20.80;96.20;;;;;;5095203;28;20055;-81
2021/08/28 21:11:08;;;;;;;4.43;3.90;;;20.90;96.10;;;;;;5109823;28;20476;-78
2021/08/28 21:13:34;;;;;;;4.63;3.70;;;20.90;95.90;;;;;;5094988;28;20527;-77
2021/08/28 21:15:59;;;;;;;4.78;3.55;;;20.90;95.60;;;;;;5094750;28;20031;-79
2021/08/28 21:18:25;;;;;;;4.85;3.33;;;20.90;95.80;;;;;;5094927;28;20099;-80
2021/08/28 21:20:51;;;;;;;4.72;4.00;;;20.90;95.90;;;;;;5095008;28;20366;-77
2021/08/28 21:23:17;;;;;;;4.55;3.90;;;20.90;95.80;;;;;;5110546;28;20031;-77
2021/08/28 21:25:49;;;;;;;4.13;3.72;;;20.90;95.70;;;;;;5094975;28;20145;-78
2021/08/28 21:28:16;;;;;;;7.10;4.20;;;20.80;95.90;;;;;;5110319;28;20043;-78
2021/08/28 21:30:41;;;;;;;6.47;3.80;;;20.80;96.20;;;;;;5094764;28;20070;-78
2021/08/28 21:33:07;;;;;;;3.78;3.47;;;20.80;96.00;;;;;;5110473;28;20049;-78
2021/08/28 21:35:33;;;;;;;4.20;3.80;;;20.80;96.40;;;;;;5076485;28;20025;-77
2021/08/28 21:37:59;;;;;;;4.90;4.40;;;20.80;96.20;;;;;;5095296;28;20040;-79
2021/08/28 21:40:25;;;;;;;5.25;4.25;;;20.80;95.60;;;;;;5076526;28;20324;-80
2021/08/28 21:42:50;;;;;;;8.95;8.05;;;20.80;95.70;;;;;;5094441;28;20020;-82
2021/08/28 21:45:16;;;;;;;9.05;6.43;;;20.80;95.60;;;;;;5110357;28;20051;-79
2021/08/28 21:47:42;;;;;;;5.55;5.05;;;20.80;95.70;;;;;;5094403;28;20120;-80
2021/08/28 21:50:08;;;;;;;4.13;3.72;;;20.80;95.40;;;;;;5094826;28;20052;-76
2021/08/28 21:52:34;;;;;;;5.82;4.13;;;20.80;95.30;;;;;;5094521;28;20431;-76
2021/08/28 21:54:59;;;;;;;4.95;4.00;;;20.80;95.30;;;;;;5094650;28;20027;-76
2021/08/28 21:57:25;;;;;;;4.20;3.50;;;20.70;95.40;;;;;;5109635;28;20032;-76
2021/08/28 21:59:53;;;;;;;3.95;3.50;;;20.70;95.50;;;;;;5109789;28;20028;-78
2021/08/28 22:02:19;;;;;;;4.50;4.05;;;20.60;95.50;;;;;;5094171;28;20039;-74
2021/08/28 22:04:45;;;;;;;4.55;3.70;;;20.60;95.10;;;;;;5093925;28;20055;-75
2021/08/28 22:07:11;;;;;;;4.45;3.95;;;20.50;95.20;;;;;;5094024;28;20058;-76
2021/08/28 22:09:37;;;;;;;4.70;3.80;;;20.50;95.20;;;;;;5075566;28;20028;-76
2021/08/28 22:12:03;;;;;;;6.25;4.00;;;20.40;95.30;;;;;;5075881;28;20016;-77
2021/08/28 22:14:29;;;;;;;4.05;3.67;;;20.40;95.50;;;;;;5075903;28;20031;-76
2021/08/28 22:16:54;;;;;;;5.10;3.80;;;20.30;95.70;;;;;;5093838;28;20024;-75
2021/08/28 22:19:20;;;;;;;3.78;3.47;;;20.20;95.80;;;;;;5093866;28;20478;-75
2021/08/28 22:21:46;;;;;;;6.93;3.50;;;20.20;96.00;;;;;;5075761;28;20374;-75
2021/08/28 22:24:11;;;;;;;3.83;3.47;;;20.10;96.10;;;;;;5093753;28;20020;-75
2021/08/28 22:26:37;;;;;;;4.15;3.45;;;20.10;96.30;;;;;;5109331;28;20031;-75
2021/08/28 22:29:03;;;;;;;4.38;3.40;;;20.00;96.40;;;;;;5109359;28;20035;-76
2021/08/28 22:31:29;;;;;;;3.97;3.58;;;20.00;96.50;;;;;;5109601;28;20024;-75
2021/08/28 22:33:54;;;;;;;5.68;3.70;;;20.00;96.90;;;;;;5075871;28;20024;-75
2021/08/28 22:36:20;;;;;;;3.72;3.42;;;19.90;96.70;;;;;;5094047;28;20020;-75
2021/08/28 22:38:46;;;;;;;7.20;3.80;;;19.90;96.80;;;;;;5109365;28;20075;-75
2021/08/28 22:41:12;;;;;;;5.07;3.80;;;19.90;96.90;;;;;;5109538;28;20024;-76
2021/08/28 22:43:37;;;;;;;4.07;3.70;;;19.90;97.10;;;;;;5109643;28;20389;-75
2021/08/28 22:46:03;;;;;;;3.83;3.42;;;19.90;97.20;;;;;;5093820;28;20519;-75
2021/08/28 22:48:29;;;;;;;5.15;3.72;;;19.90;97.20;;;;;;5093654;28;20028;-75
2021/08/28 22:50:54;;;;;;;4.03;3.33;;;19.90;97.30;;;;;;5093591;28;20039;-75
2021/08/28 22:53:20;;;;;;;3.75;3.28;;;20.00;97.30;;;;;;5093959;28;20391;-75
2021/08/28 22:55:46;;;;;;;4.65;3.58;;;20.00;97.40;;;;;;5075563;28;20206;-75
2021/08/28 22:58:11;;;;;;;3.95;3.58;;;20.00;97.40;;;;;;5093403;28;20131;-75
2021/08/28 23:00:38;;;;;;;4.20;3.47;;;20.00;97.40;;;;;;5109063;28;20043;-75
2021/08/28 23:03:04;;;;;;;3.72;3.42;;;20.10;97.40;;;;;;5075353;28;20381;-75
2021/08/28 23:05:30;;;;;;;3.65;3.35;;;20.00;97.30;;;;;;5092985;28;20098;-75
2021/08/28 23:07:55;;;;;;;3.72;3.28;;;20.10;97.40;;;;;;5108911;28;20038;-75
2021/08/28 23:10:21;;;;;;;3.50;3.20;;;20.00;97.40;;;;;;5075117;28;20089;-75
2021/08/28 23:12:48;;;;;;;4.20;3.47;;;20.00;97.50;;;;;;5093415;28;20028;-75
2021/08/28 23:15:13;;;;;;;6.60;3.80;;;20.00;97.60;;;;;;5093879;28;20103;-75
2021/08/28 23:17:39;;;;;;;3.67;3.38;;;20.00;97.60;;;;;;5093786;28;20052;-75
2021/08/28 23:20:07;;;;;;;3.63;3.25;;;20.00;97.60;;;;;;5075461;28;20024;-75
2021/08/28 23:22:34;;;;;;;3.80;3.45;;;19.90;97.50;;;;;;5075472;28;20028;-75
2021/08/28 23:24:59;;;;;;;3.53;3.22;;;19.90;97.60;;;;;;5109464;28;20024;-75
2021/08/28 23:27:25;;;;;;;4.20;3.60;;;19.90;97.60;;;;;;5093594;28;20035;-75
2021/08/28 23:29:51;;;;;;;7.30;3.03;;;19.90;97.60;;;;;;5075710;28;20455;-75
2021/08/28 23:32:16;;;;;;;3.03;2.78;;;19.90;97.70;;;;;;5075306;28;20020;-75
2021/08/28 23:34:42;;;;;;;3.78;3.47;;;19.80;97.80;;;;;;5110863;28;20020;-75
2021/08/28 23:37:08;;;;;;;4.30;3.42;;;19.80;97.90;;;;;;5097036;28;20095;-75
2021/08/28 23:39:33;;;;;;;4.97;4.00;;;19.80;98.00;;;;;;5112699;28;20024;-75
2021/08/28 23:41:59;;;;;;;3.80;3.50;;;19.80;98.00;;;;;;5112896;28;20366;-76
2021/08/28 23:44:25;;;;;;;4.22;3.80;;;19.80;97.90;;;;;;5078987;28;20020;-75
2021/08/28 23:46:51;;;;;;;4.60;3.95;;;19.80;97.90;;;;;;5097313;28;20027;-76
2021/08/28 23:49:17;;;;;;;5.88;3.70;;;19.80;97.90;;;;;;5078735;28;20043;-76
2021/08/28 23:51:42;;;;;;;4.22;3.83;;;19.70;97.90;;;;;;5097389;28;20450;-74
2021/08/28 23:54:08;;;;;;;4.35;3.95;;;19.70;97.90;;;;;;5112606;28;20024;-74
2021/08/28 23:56:33;;;;;;;4.40;4.00;;;19.70;97.90;;;;;;5096706;28;20020;-75
2021/08/28 23:58:59;;;;;;;6.15;3.90;;;19.70;98.00;;;;;;5096870;28;20044;-74
